sensor_id;sensor_type;location;lat;lon;timestamp;pressure;altitude;pressure_sealevel;temperature;humidity
33845;BME280;20145;43.118;25.694;2022-11-04T00:01:08;99608.13;;;10.10;76.76
33845;BME280;20145;43.118;25.694;2022-11-04T00:03:33;99603.00;;;10.02;76.72
33845;BME280;20145;43.118;25.694;2022-11-04T00:06:01;99593.63;;;9.93;78.03
33845;BME280;20145;43.118;25.694;2022-11-04T00:08:27;99578.19;;;9.90;77.69
33845;BME280;20145;43.118;25.694;2022-11-04T00:10:56;99603.84;;;10.04;77.66
33845;BME280;20145;43.118;25.694;2022-11-04T00:13:41;99557.59;;;9.87;79.36
33845;BME280;20145;43.118;25.694;2022-11-04T00:16:08;99591.81;;;10.09;79.47
33845;BME280;20145;43.118;25.694;2022-11-04T00:18:53;99590.94;;;10.07;79.16
33845;BME280;20145;43.118;25.694;2022-11-04T00:21:19;99567.03;;;9.90;79.30
33845;BME280;20145;43.118;25.694;2022-11-04T00:24:04;99602.94;;;10.11;79.36
33845;BME280;20145;43.118;25.694;2022-11-04T00:26:49;99591.78;;;10.12;77.66
33845;BME280;20145;43.118;25.694;2022-11-04T00:29:34;99583.22;;;10.05;78.13
33845;BME280;20145;43.118;25.694;2022-11-04T00:32:00;99600.34;;;10.17;78.31
33845;BME280;20145;43.118;25.694;2022-11-04T00:34:44;99598.59;;;10.16;78.00
33845;BME280;20145;43.118;25.694;2022-11-04T00:37:09;99593.44;;;10.18;79.36
33845;BME280;20145;43.118;25.694;2022-11-04T00:39:36;99582.28;;;10.17;79.23
33845;BME280;20145;43.118;25.694;2022-11-04T00:42:01;99580.50;;;10.25;79.15
33845;BME280;20145;43.118;25.694;2022-11-04T00:44:27;99583.94;;;10.27;80.37
33845;BME280;20145;43.118;25.694;2022-11-04T00:46:52;99566.72;;;10.25;78.27
33845;BME280;20145;43.118;25.694;2022-11-04T00:49:18;99559.06;;;10.20;79.69
33845;BME280;20145;43.118;25.694;2022-11-04T00:51:44;99552.25;;;10.12;77.83
33845;BME280;20145;43.118;25.694;2022-11-04T00:54:09;99565.16;;;10.07;77.96
33845;BME280;20145;43.118;25.694;2022-11-04T00:56:38;99565.16;;;10.05;78.81
33845;BME280;20145;43.118;25.694;2022-11-04T00:59:05;99581.44;;;10.14;79.00
33845;BME280;20145;43.118;25.694;2022-11-04T01:01:31;99569.53;;;10.00;79.08
33845;BME280;20145;43.118;25.694;2022-11-04T01:03:57;99551.53;;;9.93;79.36
33845;BME280;20145;43.118;25.694;2022-11-04T01:06:24;99530.13;;;9.80;79.11
33845;BME280;20145;43.118;25.694;2022-11-04T01:08:57;99560.94;;;9.97;78.33
33845;BME280;20145;43.118;25.694;2022-11-04T01:11:24;99525.94;;;9.64;78.08
33845;BME280;20145;43.118;25.694;2022-11-04T01:13:50;99535.34;;;9.69;78.57
33845;BME280;20145;43.118;25.694;2022-11-04T01:16:16;99579.00;;;9.94;77.14
33845;BME280;20145;43.118;25.694;2022-11-04T01:18:42;99537.97;;;9.63;78.57
33845;BME280;20145;43.118;25.694;2022-11-04T01:21:10;99526.84;;;9.58;78.18
33845;BME280;20145;43.118;25.694;2022-11-04T01:23:37;99570.56;;;9.69;77.46
33845;BME280;20145;43.118;25.694;2022-11-04T01:26:04;99533.84;;;9.37;78.15
33845;BME280;20145;43.118;25.694;2022-11-04T01:28:30;99560.38;;;9.47;77.70
33845;BME280;20145;43.118;25.694;2022-11-04T01:30:56;99537.28;;;9.30;77.98
33845;BME280;20145;43.118;25.694;2022-11-04T01:33:21;99506.50;;;9.10;79.01
33845;BME280;20145;43.118;25.694;2022-11-04T01:35:49;99556.94;;;9.50;79.56
33845;BME280;20145;43.118;25.694;2022-11-04T01:38:15;99536.34;;;9.47;78.53
33845;BME280;20145;43.118;25.694;2022-11-04T01:40:41;99531.25;;;9.39;77.32
33845;BME280;20145;43.118;25.694;2022-11-04T01:43:15;99545.84;;;9.37;78.26
33845;BME280;20145;43.118;25.694;2022-11-04T01:45:48;99537.34;;;9.26;79.09
33845;BME280;20145;43.118;25.694;2022-11-04T01:48:24;99533.06;;;9.17;78.51
33845;BME280;20145;43.118;25.694;2022-11-04T01:50:51;99523.63;;;9.21;78.83
33845;BME280;20145;43.118;25.694;2022-11-04T01:53:39;99545.00;;;9.33;78.23
33845;BME280;20145;43.118;25.694;2022-11-04T01:56:08;99543.34;;;9.26;77.99
33845;BME280;20145;43.118;25.694;2022-11-04T01:58:40;99551.84;;;9.36;78.58
33845;BME280;20145;43.118;25.694;2022-11-04T02:01:09;99532.19;;;9.24;78.54
33845;BME280;20145;43.118;25.694;2022-11-04T02:03:39;99537.34;;;9.26;79.40
33845;BME280;20145;43.118;25.694;2022-11-04T02:06:07;99533.88;;;9.25;79.99
33845;BME280;20145;43.118;25.694;2022-11-04T02:08:34;99507.34;;;9.15;80.62
33845;BME280;20145;43.118;25.694;2022-11-04T02:11:02;99515.88;;;9.24;80.34
33845;BME280;20145;43.118;25.694;2022-11-04T02:13:30;99509.00;;;9.26;80.44
33845;BME280;20145;43.118;25.694;2022-11-04T02:16:29;99509.00;;;9.29;80.46
33845;BME280;20145;43.118;25.694;2022-11-04T02:32:56;99483.19;;;9.38;85.02
33845;BME280;20145;43.118;25.694;2022-11-04T02:35:41;99498.53;;;9.56;84.62
33845;BME280;20145;43.118;25.694;2022-11-04T02:41:09;99496.72;;;9.66;81.86
33845;BME280;20145;43.118;25.694;2022-11-04T02:49:20;99491.56;;;9.69;81.33
33845;BME280;20145;43.118;25.694;2022-11-04T02:52:13;99470.25;;;9.49;81.75
33845;BME280;20145;43.118;25.694;2022-11-04T02:54:50;99489.91;;;9.62;81.86
33845;BME280;20145;43.118;25.694;2022-11-04T02:57:25;99474.47;;;9.57;81.72
33845;BME280;20145;43.118;25.694;2022-11-04T02:59:59;99480.47;;;9.63;82.90
33845;BME280;20145;43.118;25.694;2022-11-04T03:02:29;99421.47;;;9.23;81.61
33845;BME280;20145;43.118;25.694;2022-11-04T03:04:57;99475.34;;;9.55;81.45
33845;BME280;20145;43.118;25.694;2022-11-04T03:07:28;99461.72;;;9.36;81.51
33845;BME280;20145;43.118;25.694;2022-11-04T03:10:00;99455.81;;;9.26;82.00
33845;BME280;20145;43.118;25.694;2022-11-04T03:12:31;99440.34;;;9.26;82.36
33845;BME280;20145;43.118;25.694;2022-11-04T03:15:04;99432.59;;;9.28;81.67
33845;BME280;20145;43.118;25.694;2022-11-04T03:17:33;99467.66;;;9.49;81.47
33845;BME280;20145;43.118;25.694;2022-11-04T03:20:07;99459.19;;;9.33;81.73
33845;BME280;20145;43.118;25.694;2022-11-04T03:22:35;99446.31;;;9.28;82.17
33845;BME280;20145;43.118;25.694;2022-11-04T03:25:03;99454.00;;;9.39;81.77
33845;BME280;20145;43.118;25.694;2022-11-04T03:30:24;99450.53;;;9.46;82.00
33845;BME280;20145;43.118;25.694;2022-11-04T03:33:04;99421.28;;;9.50;83.57
33845;BME280;20145;43.118;25.694;2022-11-04T03:35:33;99426.38;;;9.59;84.34
33845;BME280;20145;43.118;25.694;2022-11-04T03:37:59;99442.59;;;9.72;84.65
33845;BME280;20145;43.118;25.694;2022-11-04T03:40:25;99451.88;;;9.93;85.03
33845;BME280;20145;43.118;25.694;2022-11-04T03:45:22;99420.16;;;9.85;84.31
33845;BME280;20145;43.118;25.694;2022-11-04T03:47:48;99417.50;;;9.94;83.12
33845;BME280;20145;43.118;25.694;2022-11-04T03:50:28;99438.88;;;10.02;82.51
33845;BME280;20145;43.118;25.694;2022-11-04T03:52:54;99418.38;;;9.92;81.93
33845;BME280;20145;43.118;25.694;2022-11-04T03:55:25;99409.81;;;9.88;82.24
33845;BME280;20145;43.118;25.694;2022-11-04T03:57:59;99432.16;;;9.88;81.40
33845;BME280;20145;43.118;25.694;2022-11-04T04:00:34;99426.22;;;9.81;81.04
33845;BME280;20145;43.118;25.694;2022-11-04T04:03:16;99414.31;;;9.66;82.34
33845;BME280;20145;43.118;25.694;2022-11-04T04:06:13;99437.41;;;9.77;82.19
33845;BME280;20145;43.118;25.694;2022-11-04T04:08:48;99424.59;;;9.68;82.08
33845;BME280;20145;43.118;25.694;2022-11-04T04:11:28;99436.63;;;9.70;80.87
33845;BME280;20145;43.118;25.694;2022-11-04T04:14:16;99439.22;;;9.66;80.40
33845;BME280;20145;43.118;25.694;2022-11-04T04:17:06;99434.13;;;9.58;81.19
33845;BME280;20145;43.118;25.694;2022-11-04T04:19:33;99432.50;;;9.42;81.47
33845;BME280;20145;43.118;25.694;2022-11-04T04:22:36;99432.53;;;9.38;81.45
33845;BME280;20145;43.118;25.694;2022-11-04T04:25:06;99427.47;;;9.25;80.57
33845;BME280;20145;43.118;25.694;2022-11-04T04:27:53;99415.56;;;9.08;82.22
33845;BME280;20145;43.118;25.694;2022-11-04T04:30:20;99419.91;;;9.06;82.51
33845;BME280;20145;43.118;25.694;2022-11-04T04:32:52;99431.88;;;9.12;82.68
33845;BME280;20145;43.118;25.694;2022-11-04T04:35:25;99427.59;;;9.09;82.73
33845;BME280;20145;43.118;25.694;2022-11-04T04:41:15;99424.09;;;9.16;85.06
33845;BME280;20145;43.118;25.694;2022-11-04T04:44:02;99425.81;;;9.18;84.22
33845;BME280;20145;43.118;25.694;2022-11-04T04:46:48;99413.81;;;9.13;84.42
33845;BME280;20145;43.118;25.694;2022-11-04T04:49:16;99409.56;;;9.09;83.92
33845;BME280;20145;43.118;25.694;2022-11-04T04:51:44;99431.78;;;9.23;83.61
33845;BME280;20145;43.118;25.694;2022-11-04T04:54:10;99414.69;;;9.11;83.57
33845;BME280;20145;43.118;25.694;2022-11-04T04:56:36;99409.56;;;9.08;83.70
33845;BME280;20145;43.118;25.694;2022-11-04T04:59:02;99436.94;;;9.24;82.91
33845;BME280;20145;43.118;25.694;2022-11-04T05:01:28;99419.81;;;9.17;83.59
33845;BME280;20145;43.118;25.694;2022-11-04T05:03:55;99407.91;;;9.04;82.06
33845;BME280;20145;43.118;25.694;2022-11-04T05:06:22;99413.81;;;9.13;82.79
33845;BME280;20145;43.118;25.694;2022-11-04T05:08:47;99427.53;;;9.19;82.91
33845;BME280;20145;43.118;25.694;2022-11-04T05:11:13;99405.31;;;9.07;82.10
33845;BME280;20145;43.118;25.694;2022-11-04T05:13:39;99424.13;;;9.15;82.57
33845;BME280;20145;43.118;25.694;2022-11-04T05:16:06;99404.44;;;9.03;82.11
33845;BME280;20145;43.118;25.694;2022-11-04T05:18:33;99408.69;;;9.10;82.95
33845;BME280;20145;43.118;25.694;2022-11-04T05:21:05;99442.00;;;9.33;82.64
33845;BME280;20145;43.118;25.694;2022-11-04T05:23:40;99430.75;;;9.47;83.15
33845;BME280;20145;43.118;25.694;2022-11-04T05:26:08;99437.66;;;9.43;82.31
33845;BME280;20145;43.118;25.694;2022-11-04T05:28:33;99450.47;;;9.52;82.81
33845;BME280;20145;43.118;25.694;2022-11-04T05:31:04;99454.69;;;9.63;82.87
33845;BME280;20145;43.118;25.694;2022-11-04T05:33:30;99445.22;;;9.68;82.80
33845;BME280;20145;43.118;25.694;2022-11-04T05:36:05;99458.84;;;9.82;82.37
33845;BME280;20145;43.118;25.694;2022-11-04T05:38:31;99447.66;;;9.83;82.61
33845;BME280;20145;43.118;25.694;2022-11-04T05:40:57;99452.75;;;9.91;82.02
33845;BME280;20145;43.118;25.694;2022-11-04T05:43:23;99431.22;;;9.95;82.10
33845;BME280;20145;43.118;25.694;2022-11-04T05:45:48;99432.00;;;10.04;81.90
33845;BME280;20145;43.118;25.694;2022-11-04T05:48:14;99433.66;;;10.10;82.55
33845;BME280;20145;43.118;25.694;2022-11-04T05:50:40;99432.75;;;10.16;82.49
33845;BME280;20145;43.118;25.694;2022-11-04T05:53:05;99439.56;;;10.23;83.37
33845;BME280;20145;43.118;25.694;2022-11-04T05:55:31;99438.66;;;10.32;83.70
33845;BME280;20145;43.118;25.694;2022-11-04T05:57:56;99428.25;;;10.36;83.69
33845;BME280;20145;43.118;25.694;2022-11-04T06:00:41;99445.28;;;10.53;83.04
33845;BME280;20145;43.118;25.694;2022-11-04T06:03:07;99435.84;;;10.52;83.65
33845;BME280;20145;43.118;25.694;2022-11-04T06:05:32;99450.22;;;10.71;83.13
33845;BME280;20145;43.118;25.694;2022-11-04T06:07:58;99450.97;;;10.81;82.19
33845;BME280;20145;43.118;25.694;2022-11-04T06:10:24;99457.59;;;11.02;82.58
33845;BME280;20145;43.118;25.694;2022-11-04T06:12:50;99454.13;;;11.06;82.77
33845;BME280;20145;43.118;25.694;2022-11-04T06:15:15;99467.53;;;11.31;82.37
33845;BME280;20145;43.118;25.694;2022-11-04T06:17:41;99448.53;;;11.36;81.83
33845;BME280;20145;43.118;25.694;2022-11-04T06:20:07;99464.56;;;11.55;81.03
33845;BME280;20145;43.118;25.694;2022-11-04T06:22:32;99443.09;;;11.53;80.97
33845;BME280;20145;43.118;25.694;2022-11-04T06:24:58;99452.22;;;11.74;78.90
33845;BME280;20145;43.118;25.694;2022-11-04T06:27:24;99462.34;;;11.90;79.05
33845;BME280;20145;43.118;25.694;2022-11-04T06:29:49;99462.97;;;12.05;79.30
33845;BME280;20145;43.118;25.694;2022-11-04T06:32:17;99455.91;;;12.14;77.81
33845;BME280;20145;43.118;25.694;2022-11-04T06:34:43;99469.47;;;12.26;78.33
33845;BME280;20145;43.118;25.694;2022-11-04T06:37:09;99470.91;;;12.43;75.75
33845;BME280;20145;43.118;25.694;2022-11-04T06:39:35;99454.47;;;12.44;75.51
33845;BME280;20145;43.118;25.694;2022-11-04T06:42:01;99475.56;;;12.69;75.87
33845;BME280;20145;43.118;25.694;2022-11-04T06:44:27;99473.59;;;12.82;75.79
33845;BME280;20145;43.118;25.694;2022-11-04T06:46:53;99471.69;;;12.91;75.00
33845;BME280;20145;43.118;25.694;2022-11-04T06:49:20;99455.28;;;12.91;73.19
33845;BME280;20145;43.118;25.694;2022-11-04T06:51:48;99478.00;;;13.20;74.44
33845;BME280;20145;43.118;25.694;2022-11-04T06:54:14;99484.72;;;13.30;72.15
33845;BME280;20145;43.118;25.694;2022-11-04T06:56:41;99470.63;;;13.42;73.17
33845;BME280;20145;43.118;25.694;2022-11-04T06:59:07;99479.00;;;13.53;71.67
33845;BME280;20145;43.118;25.694;2022-11-04T07:01:34;99468.41;;;13.63;71.58
33845;BME280;20145;43.118;25.694;2022-11-04T07:04:02;99470.72;;;13.75;71.20
33845;BME280;20145;43.118;25.694;2022-11-04T07:06:29;99466.16;;;13.84;71.64
33845;BME280;20145;43.118;25.694;2022-11-04T07:08:59;99465.06;;;13.93;70.07
33845;BME280;20145;43.118;25.694;2022-11-04T07:11:28;99466.47;;;14.06;69.58
33845;BME280;20145;43.118;25.694;2022-11-04T07:13:54;99445.81;;;14.03;70.18
33845;BME280;20145;43.118;25.694;2022-11-04T07:16:19;99447.47;;;14.06;69.18
33845;BME280;20145;43.118;25.694;2022-11-04T07:18:45;99452.47;;;14.14;69.47
33845;BME280;20145;43.118;25.694;2022-11-04T07:21:11;99451.47;;;14.19;68.15
33845;BME280;20145;43.118;25.694;2022-11-04T07:23:37;99438.41;;;14.22;69.17
33845;BME280;20145;43.118;25.694;2022-11-04T07:26:05;99453.34;;;14.45;68.99
33845;BME280;20145;43.118;25.694;2022-11-04T07:28:32;99440.25;;;14.50;68.23
33845;BME280;20145;43.118;25.694;2022-11-04T07:30:58;99418.69;;;14.46;68.00
33845;BME280;20145;43.118;25.694;2022-11-04T07:33:25;99439.81;;;14.67;68.41
33845;BME280;20145;43.118;25.694;2022-11-04T07:35:52;99429.22;;;14.75;67.39
33845;BME280;20145;43.118;25.694;2022-11-04T07:38:20;99412.69;;;14.77;68.32
33845;BME280;20145;43.118;25.694;2022-11-04T07:40:46;99415.63;;;14.94;67.00
33845;BME280;20145;43.118;25.694;2022-11-04T07:43:12;99407.75;;;14.98;66.85
33845;BME280;20145;43.118;25.694;2022-11-04T07:45:38;99408.81;;;15.18;65.74
33845;BME280;20145;43.118;25.694;2022-11-04T07:48:04;99402.69;;;15.21;65.94
33845;BME280;20145;43.118;25.694;2022-11-04T07:50:29;99416.75;;;15.42;66.37
33845;BME280;20145;43.118;25.694;2022-11-04T07:52:55;99394.06;;;15.47;65.31
33845;BME280;20145;43.118;25.694;2022-11-04T07:55:21;99397.88;;;15.64;65.24
33845;BME280;20145;43.118;25.694;2022-11-04T07:57:47;99396.59;;;15.77;65.48
33845;BME280;20145;43.118;25.694;2022-11-04T08:00:14;99397.97;;;15.87;64.96
33845;BME280;20145;43.118;25.694;2022-11-04T08:02:43;99389.88;;;15.96;64.37
33845;BME280;20145;43.118;25.694;2022-11-04T08:05:14;99376.88;;;15.96;64.20
33845;BME280;20145;43.118;25.694;2022-11-04T08:07:40;99395.28;;;16.15;64.42
33845;BME280;20145;43.118;25.694;2022-11-04T08:10:07;99386.34;;;16.22;63.87
33845;BME280;20145;43.118;25.694;2022-11-04T08:12:32;99361.16;;;16.23;63.53
33845;BME280;20145;43.118;25.694;2022-11-04T08:14:59;99392.31;;;16.49;63.53
33845;BME280;20145;43.118;25.694;2022-11-04T08:17:25;99390.28;;;16.58;63.50
33845;BME280;20145;43.118;25.694;2022-11-04T08:19:52;99394.19;;;16.69;62.85
33845;BME280;20145;43.118;25.694;2022-11-04T08:22:17;99340.91;;;16.55;62.87
33845;BME280;20145;43.118;25.694;2022-11-04T08:24:43;99332.03;;;16.60;63.06
33845;BME280;20145;43.118;25.694;2022-11-04T08:27:12;99354.72;;;16.80;62.11
33845;BME280;20145;43.118;25.694;2022-11-04T08:29:37;99373.00;;;17.02;62.07
33845;BME280;20145;43.118;25.694;2022-11-04T08:32:03;99361.34;;;17.11;62.03
33845;BME280;20145;43.118;25.694;2022-11-04T08:34:28;99356.03;;;17.14;61.42
33845;BME280;20145;43.118;25.694;2022-11-04T08:36:54;99347.22;;;17.16;60.89
33845;BME280;20145;43.118;25.694;2022-11-04T08:39:22;99345.22;;;17.23;60.93
33845;BME280;20145;43.118;25.694;2022-11-04T08:41:48;99344.59;;;17.38;60.79
33845;BME280;20145;43.118;25.694;2022-11-04T08:44:15;99353.53;;;17.53;60.19
33845;BME280;20145;43.118;25.694;2022-11-04T08:46:42;99321.53;;;17.50;60.46
33845;BME280;20145;43.118;25.694;2022-11-04T08:49:09;99326.09;;;17.65;60.58
33845;BME280;20145;43.118;25.694;2022-11-04T08:51:42;99349.50;;;17.89;59.64
33845;BME280;20145;43.118;25.694;2022-11-04T08:54:09;99338.72;;;17.96;59.57
33845;BME280;20145;43.118;25.694;2022-11-04T08:56:36;99336.34;;;18.11;59.44
33845;BME280;20145;43.118;25.694;2022-11-04T08:59:03;99326.47;;;18.17;59.04
33845;BME280;20145;43.118;25.694;2022-11-04T09:01:32;99333.63;;;18.33;59.00
33845;BME280;20145;43.118;25.694;2022-11-04T09:03:58;99318.50;;;18.39;58.43
33845;BME280;20145;43.118;25.694;2022-11-04T09:06:27;99330.66;;;18.59;58.19
33845;BME280;20145;43.118;25.694;2022-11-04T09:08:53;99305.41;;;18.60;57.37
33845;BME280;20145;43.118;25.694;2022-11-04T09:11:27;99312.38;;;18.78;56.97
33845;BME280;20145;43.118;25.694;2022-11-04T09:13:53;99295.25;;;18.90;55.76
33845;BME280;20145;43.118;25.694;2022-11-04T09:16:18;99304.63;;;19.13;55.06
33845;BME280;20145;43.118;25.694;2022-11-04T09:18:44;99295.47;;;19.22;55.47
33845;BME280;20145;43.118;25.694;2022-11-04T09:21:10;99301.81;;;19.35;55.60
33845;BME280;20145;43.118;25.694;2022-11-04T09:23:36;99301.13;;;19.49;54.42
33845;BME280;20145;43.118;25.694;2022-11-04T09:26:09;99281.53;;;19.56;54.27
33845;BME280;20145;43.118;25.694;2022-11-04T09:28:36;99294.25;;;19.81;52.77
33845;BME280;20145;43.118;25.694;2022-11-04T09:31:14;99282.69;;;19.85;50.25
33845;BME280;20145;43.118;25.694;2022-11-04T09:33:40;99294.13;;;20.00;52.02
33845;BME280;20145;43.118;25.694;2022-11-04T09:36:06;99287.31;;;20.13;50.07
33845;BME280;20145;43.118;25.694;2022-11-04T09:38:34;99277.19;;;20.23;50.85
33845;BME280;20145;43.118;25.694;2022-11-04T09:41:00;99288.38;;;20.42;50.76
33845;BME280;20145;43.118;25.694;2022-11-04T09:43:55;99287.75;;;20.55;49.43
33845;BME280;20145;43.118;25.694;2022-11-04T09:46:30;99270.06;;;20.58;51.06
33845;BME280;20145;43.118;25.694;2022-11-04T09:49:00;99254.72;;;20.50;49.82
33845;BME280;20145;43.118;25.694;2022-11-04T09:51:27;99253.81;;;20.52;49.51
33845;BME280;20145;43.118;25.694;2022-11-04T09:54:31;99264.22;;;20.69;48.37
33845;BME280;20145;43.118;25.694;2022-11-04T09:57:00;99260.34;;;20.76;47.59
33845;BME280;20145;43.118;25.694;2022-11-04T09:59:31;99254.31;;;20.90;47.65
33845;BME280;20145;43.118;25.694;2022-11-04T10:05:01;99247.06;;;21.09;45.77
33845;BME280;20145;43.118;25.694;2022-11-04T10:18:52;99211.84;;;21.44;43.77
33845;BME280;20145;43.118;25.694;2022-11-04T10:24:23;99199.09;;;21.52;42.85
33845;BME280;20145;43.118;25.694;2022-11-04T10:27:02;99181.75;;;21.49;42.91
33845;BME280;20145;43.118;25.694;2022-11-04T10:29:36;99185.69;;;21.56;43.39
33845;BME280;20145;43.118;25.694;2022-11-04T10:32:10;99158.88;;;21.51;43.35
33845;BME280;20145;43.118;25.694;2022-11-04T10:34:53;99176.28;;;21.67;43.09
33845;BME280;20145;43.118;25.694;2022-11-04T10:37:24;99161.03;;;21.73;42.05
33845;BME280;20145;43.118;25.694;2022-11-04T10:39:54;99179.63;;;21.97;42.14
33845;BME280;20145;43.118;25.694;2022-11-04T10:42:23;99168.97;;;22.00;41.97
33845;BME280;20145;43.118;25.694;2022-11-04T10:44:50;99159.56;;;21.96;41.54
33845;BME280;20145;43.118;25.694;2022-11-04T10:52:21;99122.94;;;22.08;40.14
33845;BME280;20145;43.118;25.694;2022-11-04T10:54:48;99151.91;;;22.35;41.15
33845;BME280;20145;43.118;25.694;2022-11-04T10:57:22;99147.91;;;22.42;41.16
33845;BME280;20145;43.118;25.694;2022-11-04T11:05:20;99133.78;;;22.57;39.13
33845;BME280;20145;43.118;25.694;2022-11-04T11:10:34;99143.72;;;22.79;38.45
33845;BME280;20145;43.118;25.694;2022-11-04T11:13:02;99137.00;;;22.88;38.71
33845;BME280;20145;43.118;25.694;2022-11-04T11:15:38;99132.69;;;22.87;39.32
33845;BME280;20145;43.118;25.694;2022-11-04T11:20:31;99132.03;;;22.83;39.96
33845;BME280;20145;43.118;25.694;2022-11-04T11:22:58;99116.56;;;22.79;39.29
33845;BME280;20145;43.118;25.694;2022-11-04T11:25:26;99127.97;;;22.92;38.90
33845;BME280;20145;43.118;25.694;2022-11-04T11:31:13;99125.16;;;23.08;39.46
33845;BME280;20145;43.118;25.694;2022-11-04T11:33:34;99130.22;;;23.24;39.11
33845;BME280;20145;43.118;25.694;2022-11-04T11:38:32;99116.19;;;23.36;38.20
33845;BME280;20145;43.118;25.694;2022-11-04T11:41:16;99111.66;;;23.38;37.63
33845;BME280;20145;43.118;25.694;2022-11-04T11:43:51;99117.75;;;23.51;37.46
33845;BME280;20145;43.118;25.694;2022-11-04T11:46:26;99117.84;;;23.63;37.23
33845;BME280;20145;43.118;25.694;2022-11-04T11:48:55;99119.97;;;23.57;37.12
33845;BME280;20145;43.118;25.694;2022-11-04T11:51:31;99111.44;;;23.54;37.04
33845;BME280;20145;43.118;25.694;2022-11-04T11:54:30;99113.25;;;23.53;36.68
33845;BME280;20145;43.118;25.694;2022-11-04T11:57:01;99118.81;;;23.62;36.81
33845;BME280;20145;43.118;25.694;2022-11-04T11:59:45;99109.63;;;23.67;36.88
33845;BME280;20145;43.118;25.694;2022-11-04T12:02:27;99104.78;;;23.74;36.93
33845;BME280;20145;43.118;25.694;2022-11-04T12:04:57;99106.69;;;23.59;36.51
33845;BME280;20145;43.118;25.694;2022-11-04T12:15:00;99082.53;;;23.65;37.28
33845;BME280;20145;43.118;25.694;2022-11-04T12:17:49;99080.56;;;23.56;37.15
33845;BME280;20145;43.118;25.694;2022-11-04T12:23:43;99061.75;;;23.36;37.19
33845;BME280;20145;43.118;25.694;2022-11-04T12:29:36;99067.78;;;23.26;37.51
33845;BME280;20145;43.118;25.694;2022-11-04T12:36:49;99057.97;;;23.02;38.70
33845;BME280;20145;43.118;25.694;2022-11-04T12:39:37;99063.59;;;22.98;38.90
33845;BME280;20145;43.118;25.694;2022-11-04T12:42:16;99046.47;;;22.78;38.96
33845;BME280;20145;43.118;25.694;2022-11-04T12:44:52;99048.81;;;22.82;39.38
33845;BME280;20145;43.118;25.694;2022-11-04T12:47:35;99055.56;;;22.86;39.30
33845;BME280;20145;43.118;25.694;2022-11-04T12:50:19;99051.13;;;22.87;39.02
33845;BME280;20145;43.118;25.694;2022-11-04T12:53:24;99044.50;;;22.81;38.89
33845;BME280;20145;43.118;25.694;2022-11-04T13:06:41;99039.22;;;22.68;39.21
33845;BME280;20145;43.118;25.694;2022-11-04T13:14:34;99020.72;;;22.70;39.40
33845;BME280;20145;43.118;25.694;2022-11-04T13:17:06;99019.84;;;22.69;39.37
33845;BME280;20145;43.118;25.694;2022-11-04T13:20:02;99029.84;;;22.77;39.48
33845;BME280;20145;43.118;25.694;2022-11-04T13:22:35;99024.94;;;22.73;39.72
33845;BME280;20145;43.118;25.694;2022-11-04T13:27:39;99014.94;;;22.65;39.42
33845;BME280;20145;43.118;25.694;2022-11-04T13:38:08;99002.81;;;22.37;40.50
33845;BME280;20145;43.118;25.694;2022-11-04T13:41:15;99032.47;;;22.52;39.51
33845;BME280;20145;43.118;25.694;2022-11-04T13:43:58;99035.28;;;22.36;40.42
33845;BME280;20145;43.118;25.694;2022-11-04T13:46:32;99023.44;;;22.16;39.78
33845;BME280;20145;43.118;25.694;2022-11-04T13:49:14;99032.09;;;22.18;40.05
33845;BME280;20145;43.118;25.694;2022-11-04T13:51:47;99036.34;;;22.06;41.01
33845;BME280;20145;43.118;25.694;2022-11-04T13:54:30;99036.28;;;21.93;41.85
33845;BME280;20145;43.118;25.694;2022-11-04T13:57:18;99013.78;;;21.62;41.60
33845;BME280;20145;43.118;25.694;2022-11-04T14:16:37;99017.69;;;20.99;42.94
33845;BME280;20145;43.118;25.694;2022-11-04T14:22:14;99001.75;;;20.74;44.08
33845;BME280;20145;43.118;25.694;2022-11-04T14:24:41;99010.00;;;20.67;43.84
33845;BME280;20145;43.118;25.694;2022-11-04T14:27:39;98996.41;;;20.61;44.04
33845;BME280;20145;43.118;25.694;2022-11-04T14:30:08;98994.03;;;20.56;44.55
33845;BME280;20145;43.118;25.694;2022-11-04T14:32:55;98985.00;;;20.32;44.94
33845;BME280;20145;43.118;25.694;2022-11-04T14:35:23;98999.88;;;20.31;44.65
33845;BME280;20145;43.118;25.694;2022-11-04T14:37:53;98997.03;;;20.20;45.50
33845;BME280;20145;43.118;25.694;2022-11-04T14:40:26;98994.88;;;20.12;46.00
33845;BME280;20145;43.118;25.694;2022-11-04T14:42:55;98993.72;;;20.02;46.15
33845;BME280;20145;43.118;25.694;2022-11-04T14:45:27;98987.31;;;19.92;46.12
33845;BME280;20145;43.118;25.694;2022-11-04T14:48:10;98982.16;;;19.90;46.17
33845;BME280;20145;43.118;25.694;2022-11-04T14:50:41;98975.41;;;19.86;46.73
33845;BME280;20145;43.118;25.694;2022-11-04T14:53:16;98971.53;;;19.77;45.53
33845;BME280;20145;43.118;25.694;2022-11-04T14:55:45;98954.41;;;19.56;46.65
33845;BME280;20145;43.118;25.694;2022-11-04T14:58:25;98979.16;;;19.66;45.92
33845;BME280;20145;43.118;25.694;2022-11-04T15:00:57;98977.69;;;19.60;46.46
33845;BME280;20145;43.118;25.694;2022-11-04T15:03:26;98988.00;;;19.48;46.73
33845;BME280;20145;43.118;25.694;2022-11-04T15:06:01;98972.16;;;19.35;47.23
33845;BME280;20145;43.118;25.694;2022-11-04T15:11:16;98963.88;;;19.11;48.20
33845;BME280;20145;43.118;25.694;2022-11-04T15:13:48;98994.50;;;19.25;48.58
33845;BME280;20145;43.118;25.694;2022-11-04T15:16:22;98993.66;;;19.24;47.99
33845;BME280;20145;43.118;25.694;2022-11-04T15:18:53;98964.03;;;19.08;48.17
33845;BME280;20145;43.118;25.694;2022-11-04T15:21:19;98937.03;;;18.91;48.96
33845;BME280;20145;43.118;25.694;2022-11-04T15:23:55;98964.59;;;18.97;47.82
33845;BME280;20145;43.118;25.694;2022-11-04T15:28:50;98983.56;;;18.85;48.99
33845;BME280;20145;43.118;25.694;2022-11-04T15:31:20;98983.31;;;18.89;49.05
33845;BME280;20145;43.118;25.694;2022-11-04T15:33:54;98975.41;;;18.91;48.94